Time;durP1;ratioP1;P1;durP2;ratioP2;P2;SDS_P1;SDS_P2;PMS_P1;PMS_P2;Temp;Humidity;BMP_temperature;BMP_pressure;BME280_temperature;BME280_humidity;BME280_pressure;Samples;Min_cycle;Max_cycle;Signal;HPM_P1;HPM_P2
2023/07/07 00:01:28;;;;;;;4.38;2.40;;;;;;;13.51;100.00;101773.06;5072667;28;20055;-48
2023/07/07 00:03:53;;;;;;;3.05;2.47;;;;;;;13.25;100.00;101734.16;5073801;28;20519;-46
2023/07/07 00:06:21;;;;;;;2.63;2.42;;;;;;;13.67;100.00;101814.03;5073418;28;20032;-49
2023/07/07 00:08:47;;;;;;;4.70;2.80;;;;;;;13.65;100.00;101807.03;5073801;28;20068;-47
2023/07/07 00:11:12;;;;;;;5.78;2.75;;;;;;;13.62;100.00;101821.22;5073651;28;20032;-50
2023/07/07 00:13:37;;;;;;;4.28;2.60;;;;;;;13.51;100.00;101799.53;5073752;28;20033;-52
2023/07/07 00:16:03;;;;;;;4.05;2.97;;;;;;;13.13;100.00;101736.31;5073471;28;20131;-48
2023/07/07 00:18:29;;;;;;;6.32;2.35;;;;;;;13.27;100.00;101761.44;5045069;28;20087;-50
2023/07/07 00:20:59;;;;;;;4.15;2.92;;;;;;;13.14;100.00;101738.88;5052412;28;20032;-48
2023/07/07 00:23:25;;;;;;;6.47;2.83;;;;;;;13.19;100.00;101749.34;5053865;28;20489;-47
2023/07/07 00:26:05;;;;;;;3.50;3.10;;;;;;;13.45;100.00;101792.63;5053011;28;20049;-46
2023/07/07 00:28:31;;;;;;;4.22;2.70;;;;;;;13.53;100.00;101802.97;5035735;28;20069;-48
2023/07/07 00:30:56;;;;;;;3.67;3.00;;;;;;;13.45;100.00;101792.63;5047439;28;20451;-51
2023/07/07 00:33:22;;;;;;;3.50;2.45;;;;;;;13.23;100.00;101761.53;5073303;28;20036;-47
2023/07/07 00:35:48;;;;;;;6.18;2.92;;;;;;;12.98;100.00;101729.63;5072903;28;20086;-50
2023/07/07 00:38:14;;;;;;;4.05;2.78;;;;;;;12.93;100.00;101720.94;5071790;28;20108;-47
2023/07/07 00:40:40;;;;;;;4.63;3.05;;;;;;;13.01;100.00;101739.25;5055056;28;20064;-49
2023/07/07 00:43:17;;;;;;;5.03;3.25;;;;;;;13.33;100.00;101808.84;5073034;28;20115;-45
2023/07/07 00:45:44;;;;;;;5.50;3.13;;;;;;;12.96;100.00;101737.59;5073112;28;20448;-47
2023/07/07 00:48:22;;;;;;;3.28;2.97;;;;;;;12.92;100.00;101733.31;5071952;28;20480;-47
2023/07/07 00:50:52;;;;;;;6.00;3.55;;;;;;;13.14;100.00;101775.88;5072133;28;20123;-51
2023/07/07 00:53:18;;;;;;;5.43;3.00;;;;;;;12.98;100.00;101749.00;5073038;28;20064;-46
2023/07/07 00:55:47;;;;;;;5.13;3.40;;;;;;;12.81;100.00;101713.38;5072772;28;20090;-47
2023/07/07 00:58:14;;;;;;;6.63;3.60;;;;;;;13.23;100.00;101786.22;5055063;28;20020;-50
2023/07/07 01:00:43;;;;;;;4.43;3.35;;;;;;;13.20;100.00;101788.06;5054680;28;20480;-47
2023/07/07 01:03:13;;;;;;;4.82;3.50;;;;;;;12.80;100.00;101725.72;5071650;28;20033;-49
2023/07/07 01:05:40;;;;;;;5.28;3.30;;;;;;;13.09;100.00;101769.88;5071436;28;20036;-48
2023/07/07 01:08:06;;;;;;;11.38;4.45;;;;;;;12.96;100.00;101755.22;5072145;28;20687;-46
2023/07/07 01:10:32;;;;;;;5.53;3.60;;;;;;;13.16;100.00;101784.66;5071419;28;20143;-48
2023/07/07 01:12:58;;;;;;;5.28;4.07;;;;;;;13.07;100.00;101766.38;5072623;28;20052;-46
2023/07/07 01:15:25;;;;;;;6.75;4.53;;;;;;;12.69;100.00;101696.09;5071138;28;20036;-48
2023/07/07 01:18:01;;;;;;;10.05;4.38;;;;;;;13.14;100.00;101782.94;5072330;28;20399;-46
2023/07/07 01:20:41;;;;;;;7.07;4.47;;;;;;;13.12;100.00;101784.78;5070488;28;20032;-47
2023/07/07 01:23:28;;;;;;;5.95;4.30;;;;;;;13.12;100.00;101776.84;5052653;28;20112;-46
2023/07/07 01:26:26;;;;;;;7.82;4.80;;;;;;;13.09;100.00;101777.81;5052200;28;20033;-49
2023/07/07 01:29:14;;;;;;;6.93;4.70;;;;;;;13.08;100.00;101791.91;5052164;28;20035;-49
2023/07/07 01:31:43;;;;;;;6.43;4.63;;;;;;;13.04;100.00;101770.88;5052225;28;20040;-49
2023/07/07 01:34:10;;;;;;;5.18;4.65;;;;;;;13.04;100.00;101779.69;5050588;28;20040;-48
2023/07/07 01:36:36;;;;;;;6.20;4.50;;;;;;;12.97;100.00;101767.53;5050965;28;20049;-50
2023/07/07 01:39:02;;;;;;;4.80;4.22;;;;;;;12.74;100.00;101743.50;5051402;28;20040;-49
2023/07/07 01:41:52;;;;;;;5.82;4.60;;;;;;;12.52;100.00;101703.59;5050864;28;20124;-47
2023/07/07 01:44:56;;;;;;;4.72;4.00;;;;;;;12.90;100.00;101774.75;5050795;28;20433;-48
2023/07/07 01:47:32;;;;;;;5.63;4.95;;;;;;;12.45;100.00;101695.88;5052031;28;20028;-47
2023/07/07 01:50:14;;;;;;;6.47;4.38;;;;;;;12.82;100.00;101770.59;5052033;28;20033;-49
2023/07/07 01:52:45;;;;;;;8.27;4.88;;;;;;;12.40;100.00;101712.69;5050638;28;20033;-50
2023/07/07 01:55:16;;;;;;;7.45;4.57;;;;;;;12.74;100.00;101773.44;5069194;28;20036;-48
2023/07/07 01:57:44;;;;;;;5.32;4.20;;;;;;;12.56;100.00;101750.16;5053928;28;20036;-48
2023/07/07 02:00:11;;;;;;;9.13;4.70;;;;;;;12.65;100.00;101773.69;5053823;28;20442;-52
2023/07/07 02:02:36;;;;;;;6.15;4.57;;;;;;;12.64;100.00;101777.22;5070853;28;20406;-49
2023/07/07 02:05:02;;;;;;;6.63;4.93;;;;;;;12.21;100.00;101697.38;5071535;28;20036;-46
2023/07/07 02:07:27;;;;;;;8.00;4.85;;;;;;;12.50;100.00;101752.94;5071697;28;20081;-46
2023/07/07 02:09:53;;;;;;;7.70;5.53;;;;;;;12.51;100.00;101774.94;5070528;28;20044;-46
2023/07/07 02:12:18;;;;;;;6.47;4.90;;;;;;;12.16;100.00;101694.00;5071776;28;20072;-47
2023/07/07 02:14:43;;;;;;;11.10;5.78;;;;;;;12.31;100.00;101725.28;5071616;28;20105;-50
2023/07/07 02:17:09;;;;;;;8.15;5.78;;;;;;;12.10;100.00;101695.03;5072082;28;20164;-47
2023/07/07 02:19:34;;;;;;;8.18;6.28;;;;;;;12.53;100.00;101759.91;5054872;28;20036;-48
2023/07/07 02:21:59;;;;;;;8.50;6.68;;;;;;;12.51;100.00;101759.97;5075614;28;20389;-47
2023/07/07 02:24:25;;;;;;;8.65;7.13;;;;;;;12.50;100.00;101752.94;5074522;28;20052;-48
2023/07/07 02:26:50;;;;;;;8.32;6.80;;;;;;;12.52;100.00;101756.41;5055815;28;20122;-46
2023/07/07 02:29:16;;;;;;;8.27;7.07;;;;;;;12.09;100.00;101677.44;5055567;28;20068;-48
2023/07/07 02:31:41;;;;;;;8.38;7.30;;;;;;;12.10;100.00;101689.75;5037730;28;20128;-47
2023/07/07 02:34:07;;;;;;;11.02;8.15;;;;;;;12.08;100.00;101681.00;5055828;28;20025;-46
2023/07/07 02:36:32;;;;;;;11.93;8.50;;;;;;;12.49;100.00;101756.50;5055586;28;20420;-48
2023/07/07 02:38:57;;;;;;;10.60;8.85;;;;;;;12.07;100.00;101686.31;5055194;28;20037;-48
2023/07/07 02:41:23;;;;;;;12.05;8.50;;;;;;;12.50;100.00;101754.72;5055240;28;20610;-47
2023/07/07 02:43:48;;;;;;;10.60;8.65;;;;;;;12.07;100.00;101687.19;5051734;28;20044;-48
2023/07/07 02:46:13;;;;;;;10.90;9.70;;;;;;;12.48;100.00;101757.41;5073948;28;20048;-48
2023/07/07 02:48:39;;;;;;;10.55;9.02;;;;;;;12.48;100.00;101764.47;5075361;28;20120;-49
2023/07/07 02:51:05;;;;;;;11.85;10.20;;;;;;;12.43;100.00;101756.66;5075214;28;20063;-49
2023/07/07 02:53:35;;;;;;;12.93;9.75;;;;;;;12.48;100.00;101775.91;5073788;28;20078;-49
2023/07/07 02:56:01;;;;;;;12.63;9.88;;;;;;;12.48;100.00;101783.81;5056854;28;20446;-49
2023/07/07 02:58:26;;;;;;;12.75;10.48;;;;;;;12.02;100.00;101697.00;5073009;28;20036;-49
2023/07/07 03:00:52;;;;;;;12.65;10.73;;;;;;;12.05;100.00;101699.56;5037013;28;20129;-46
2023/07/07 03:03:18;;;;;;;14.68;11.40;;;;;;;12.01;100.00;101705.81;5037168;28;20033;-46
2023/07/07 03:05:44;;;;;;;13.18;10.93;;;;;;;12.29;100.00;101753.47;5055109;28;20037;-48
2023/07/07 03:08:10;;;;;;;14.38;11.57;;;;;;;12.36;100.00;101765.63;5017068;28;20394;-50
2023/07/07 03:10:36;;;;;;;12.40;11.05;;;;;;;12.10;100.00;101710.84;5033982;28;20044;-49
2023/07/07 03:13:02;;;;;;;13.32;11.15;;;;;;;12.43;100.00;101775.16;5034850;28;20196;-51
2023/07/07 03:15:39;;;;;;;14.38;12.48;;;;;;;11.96;100.00;101696.28;5039079;28;20044;-49
2023/07/07 03:18:06;;;;;;;12.15;10.60;;;;;;;12.36;100.00;101773.56;5053827;28;20037;-47
2023/07/07 03:20:31;;;;;;;14.57;12.23;;;;;;;12.03;100.00;101719.81;5054801;28;20041;-47
2023/07/07 03:22:56;;;;;;;16.00;12.38;;;;;;;11.92;100.00;101702.50;5054512;28;20033;-49
2023/07/07 03:25:25;;;;;;;15.82;13.50;;;;;;;12.21;100.00;101753.69;5054491;28;20071;-51
2023/07/07 03:27:51;;;;;;;14.07;12.57;;;;;;;12.02;100.00;101719.88;5054497;28;20037;-51
2023/07/07 03:30:16;;;;;;;14.48;13.00;;;;;;;12.28;100.00;101771.13;5054524;28;20082;-47
2023/07/07 03:32:42;;;;;;;15.10;13.55;;;;;;;12.24;100.00;101765.94;5053369;28;20384;-47
2023/07/07 03:35:07;;;;;;;13.07;11.55;;;;;;;12.25;100.00;101775.59;5054520;28;20068;-49
2023/07/07 03:37:33;;;;;;;16.75;13.55;;;;;;;12.25;100.00;101772.97;5054530;28;20068;-51
2023/07/07 03:39:58;;;;;;;15.02;13.45;;;;;;;11.82;100.00;101699.25;5054417;28;20128;-50
2023/07/07 03:42:23;;;;;;;16.17;13.02;;;;;;;12.24;100.00;101779.13;5054313;28;20087;-48
2023/07/07 03:44:48;;;;;;;16.00;13.27;;;;;;;12.24;100.00;101772.09;5054121;28;20041;-47
2023/07/07 03:47:14;;;;;;;15.85;13.75;;;;;;;12.24;100.00;101771.22;5054370;28;20111;-47
2023/07/07 03:49:39;;;;;;;16.77;13.95;;;;;;;12.24;100.00;101772.09;5047303;28;20091;-46
2023/07/07 03:52:05;;;;;;;14.45;13.10;;;;;;;12.24;100.00;101768.56;5034189;28;20124;-46
2023/07/07 03:54:30;;;;;;;13.95;12.60;;;;;;;12.26;100.00;101769.41;5034239;28;20059;-48
2023/07/07 03:56:56;;;;;;;16.17;14.35;;;;;;;12.27;100.00;101776.41;5034074;28;20041;-48
2023/07/07 03:59:21;;;;;;;16.23;13.88;;;;;;;12.30;100.00;101774.56;5049755;28;20069;-47
2023/07/07 04:01:48;;;;;;;16.60;13.60;;;;;;;12.28;100.00;101764.97;5034040;28;20469;-50
2023/07/07 04:04:13;;;;;;;15.23;13.07;;;;;;;12.36;100.00;101776.19;5034502;28;20037;-47
2023/07/07 04:06:38;;;;;;;15.57;13.70;;;;;;;12.40;100.00;101785.78;5041697;28;20052;-50
2023/07/07 04:09:04;;;;;;;15.30;13.65;;;;;;;12.39;100.00;101771.72;5068279;28;20055;-46
2023/07/07 04:11:30;;;;;;;14.30;12.80;;;;;;;12.45;100.00;101780.38;5073568;28;20036;-45
2023/07/07 04:13:55;;;;;;;15.02;13.18;;;;;;;12.49;100.00;101784.69;5073737;28;20039;-48
2023/07/07 04:16:22;;;;;;;18.48;13.23;;;;;;;12.13;100.00;101723.09;5073643;28;20041;-48
2023/07/07 04:18:50;;;;;;;15.20;13.20;;;;;;;12.07;100.00;101710.94;5072603;28;20078;-46
2023/07/07 04:21:20;;;;;;;15.63;13.25;;;;;;;12.61;100.00;101794.94;5055693;28;20032;-48
2023/07/07 04:23:47;;;;;;;14.80;13.23;;;;;;;12.27;100.00;101718.34;5072304;28;20036;-49
2023/07/07 04:26:12;;;;;;;15.48;12.68;;;;;;;12.69;100.00;101785.03;5073229;28;20483;-50
2023/07/07 04:28:38;;;;;;;15.02;13.32;;;;;;;12.70;100.00;101778.84;5073425;28;20064;-45
2023/07/07 04:31:05;;;;;;;13.80;11.82;;;;;;;12.36;100.00;101718.13;5072003;28;20468;-47
2023/07/07 04:33:32;;;;;;;15.82;13.10;;;;;;;12.32;100.00;101701.47;5055332;28;20037;-46
2023/07/07 04:35:59;;;;;;;14.75;11.55;;;;;;;12.79;100.00;101776.81;5055097;28;20041;-46
2023/07/07 04:38:32;;;;;;;13.25;11.48;;;;;;;12.48;100.00;101716.94;5072018;28;20028;-46
2023/07/07 04:41:21;;;;;;;16.98;13.23;;;;;;;12.78;100.00;101769.78;5071067;28;20479;-49
2023/07/07 04:43:53;;;;;;;13.90;11.82;;;;;;;12.56;100.00;101715.81;5072045;28;20047;-48
2023/07/07 04:46:24;;;;;;;14.27;11.57;;;;;;;12.93;100.00;101779.97;5055234;28;20588;-48
2023/07/07 04:48:49;;;;;;;12.63;11.32;;;;;;;12.99;100.00;101782.44;5072947;28;20032;-46
2023/07/07 04:51:15;;;;;;;11.90;10.40;;;;;;;12.77;100.00;101723.16;5072889;28;20036;-50
2023/07/07 04:53:41;;;;;;;11.77;10.20;;;;;;;12.73;100.00;101695.09;5071744;28;20055;-50
2023/07/07 04:56:10;;;;;;;12.27;9.95;;;;;;;13.27;100.00;101776.41;5071482;28;20089;-50
2023/07/07 04:58:36;;;;;;;16.67;11.35;;;;;;;13.22;100.00;101762.47;5071888;28;20098;-46
2023/07/07 05:01:15;;;;;;;11.40;10.00;;;;;;;13.01;100.00;101699.59;5071597;28;20107;-47
2023/07/07 05:03:41;;;;;;;16.20;10.35;;;;;;;13.54;100.00;101780.91;5072931;28;20033;-46
2023/07/07 05:06:07;;;;;;;12.05;9.90;;;;;;;13.67;100.00;101776.97;5072161;28;20028;-50
2023/07/07 05:08:35;;;;;;;10.65;8.85;;;;;;;13.25;100.00;101691.84;5072298;28;20101;-46
2023/07/07 05:11:01;;;;;;;15.70;9.60;;;;;;;13.88;100.00;101784.28;5072463;28;20033;-48
2023/07/07 05:13:26;;;;;;;13.70;8.73;;;;;;;13.57;100.00;101706.75;5072786;28;20143;-46
2023/07/07 05:16:03;;;;;;;11.73;8.32;;;;;;;13.71;100.00;101714.25;5071324;28;20052;-52
2023/07/07 05:18:28;;;;;;;11.10;7.85;;;;;;;13.70;100.00;101697.50;5064308;28;20033;-49
2023/07/07 05:20:54;;;;;;;13.40;7.93;;;;;;;14.02;100.00;101746.75;5052420;28;20029;-50
2023/07/07 05:23:19;;;;;;;9.75;7.90;;;;;;;14.38;100.00;101789.75;5052697;28;20032;-45
2023/07/07 05:25:45;;;;;;;9.73;6.95;;;;;;;14.42;100.00;101788.72;5052429;28;20046;-47
2023/07/07 05:28:10;;;;;;;11.57;7.05;;;;;;;14.22;100.00;101720.50;5052402;28;20482;-47
2023/07/07 05:30:38;;;;;;;11.35;6.85;;;;;;;14.73;100.00;101794.75;5034427;28;20056;-47
2023/07/07 05:33:03;;;;;;;7.47;6.68;;;;;;;14.90;100.00;101802.97;5052390;28;20033;-47
2023/07/07 05:35:29;;;;;;;9.38;6.32;;;;;;;14.95;100.00;101769.19;5052449;28;20123;-47
2023/07/07 05:37:54;;;;;;;10.50;6.30;;;;;;;15.32;100.00;101805.00;5053195;28;20029;-48
2023/07/07 05:40:19;;;;;;;7.53;6.43;;;;;;;15.52;100.00;101813.13;5072084;28;20114;-47
2023/07/07 05:42:45;;;;;;;6.70;5.53;;;;;;;15.34;100.00;101750.09;5072229;28;20399;-46
2023/07/07 05:45:10;;;;;;;7.40;6.07;;;;;;;15.57;100.00;101774.00;5072163;28;20032;-49
2023/07/07 05:47:35;;;;;;;9.48;5.78;;;;;;;16.06;100.00;101829.59;5071696;28;20434;-48
2023/07/07 05:50:01;;;;;;;6.80;5.55;;;;;;;15.82;100.00;101761.50;5054542;28;20055;-47
2023/07/07 05:52:26;;;;;;;8.68;5.57;;;;;;;16.03;100.00;101771.28;5061475;28;20040;-47
2023/07/07 05:54:51;;;;;;;7.60;5.25;;;;;;;16.55;100.00;101838.28;5051543;28;20044;-46
2023/07/07 05:57:17;;;;;;;6.75;5.03;;;;;;;16.70;100.00;101834.97;5051919;28;20037;-49
2023/07/07 05:59:42;;;;;;;8.35;4.55;;;;;;;16.74;100.00;101807.34;5051797;28;20473;-45
2023/07/07 06:02:10;;;;;;;5.88;4.32;;;;;;;17.05;100.00;101846.75;5051829;28;20122;-45
2023/07/07 06:04:35;;;;;;;5.68;4.45;;;;;;;17.21;100.00;101850.50;5050822;28;20063;-47
2023/07/07 06:07:01;;;;;;;8.80;4.13;;;;;;;17.35;100.00;101840.97;5051481;28;20033;-47
2023/07/07 06:09:26;;;;;;;5.85;4.35;;;;;;;17.42;100.00;101834.44;5050567;28;20045;-48
2023/07/07 06:11:51;;;;;;;7.65;4.20;;;;;;;17.24;100.00;101779.41;5051901;28;20053;-48
2023/07/07 06:14:17;;;;;;;9.68;3.22;;;;;;;17.76;100.00;101847.13;5052267;28;20029;-48
2023/07/07 06:16:42;;;;;;;6.38;3.75;;;;;;;17.84;100.00;101828.97;5051751;28;20091;-45
2023/07/07 06:19:07;;;;;;;6.30;3.28;;;;;;;18.09;100.00;101852.69;5051832;28;20029;-48
2023/07/07 06:21:33;;;;;;;4.95;3.40;;;;;;;17.93;100.00;101804.56;5052009;28;20112;-48
2023/07/07 06:23:58;;;;;;;5.82;3.45;;;;;;;18.42;100.00;101858.16;5051505;28;20043;-50
2023/07/07 06:26:24;;;;;;;5.53;3.88;;;;;;;18.58;100.00;101853.00;5051214;28;20040;-53
2023/07/07 06:28:49;;;;;;;4.55;3.13;;;;;;;18.73;100.00;101865.56;5033874;28;20044;-48
2023/07/07 06:31:14;;;;;;;5.70;3.38;;;;;;;18.87;100.00;101861.25;5050763;28;20052;-49
2023/07/07 06:33:42;;;;;;;6.50;3.35;;;;;;;19.02;100.00;101857.81;5051395;28;20041;-50
2023/07/07 06:36:07;;;;;;;6.70;3.67;;;;;;;18.82;100.00;101817.97;5051886;28;20040;-50
2023/07/07 06:38:32;;;;;;;4.50;2.75;;;;;;;19.21;100.00;101871.06;5051947;28;20033;-47
2023/07/07 06:40:58;;;;;;;4.53;2.75;;;;;;;19.36;100.00;101870.25;5057706;28;20479;-48
2023/07/07 06:43:23;;;;;;;8.68;3.22;;;;;;;19.45;100.00;101871.63;5071436;28;20433;-48
2023/07/07 06:45:50;;;;;;;6.68;3.40;;;;;;;19.38;100.00;101846.16;5071868;28;20535;-51
2023/07/07 06:48:15;;;;;;;7.05;2.60;;;;;;;19.70;100.00;101877.41;5070527;28;20069;-51
2023/07/07 06:50:41;;;;;;;4.65;3.08;;;;;;;19.46;100.00;101814.59;5071570;28;20028;-50
2023/07/07 06:53:07;;;;;;;5.80;3.22;;;;;;;19.48;100.00;101800.22;5071650;28;20036;-50
2023/07/07 06:55:33;;;;;;;5.13;3.03;;;;;;;19.98;100.00;101868.72;5071427;28;20488;-49
2023/07/07 06:57:58;;;;;;;3.60;2.60;;;;;;;19.84;100.00;101821.41;5070279;28;20479;-51
2023/07/07 07:00:23;;;;;;;5.97;3.03;;;;;;;20.04;100.00;101841.66;5053378;28;20124;-49
2023/07/07 07:02:49;;;;;;;4.00;2.40;;;;;;;20.05;100.00;101830.03;5071331;28;20032;-48
2023/07/07 07:05:14;;;;;;;8.43;2.60;;;;;;;20.46;100.00;101883.88;5054197;28;20037;-49
2023/07/07 07:07:39;;;;;;;2.70;2.20;;;;;;;20.27;100.00;101833.25;5075033;28;20032;-52
2023/07/07 07:10:06;;;;;;;3.65;2.72;;;;;;;20.43;100.00;101839.41;5074888;28;20499;-49
2023/07/07 07:12:31;;;;;;;3.28;2.63;;;;;;;20.82;100.00;101889.75;5074891;28;20033;-51
2023/07/07 07:14:57;;;;;;;4.10;2.75;;;;;;;20.85;100.00;101875.34;5057405;28;20036;-49
2023/07/07 07:17:23;;;;;;;4.75;2.90;;;;;;;21.07;100.00;101894.53;5054792;28;20067;-51
2023/07/07 07:19:49;;;;;;;4.40;2.75;;;;;;;21.22;100.00;101902.53;5054678;28;20400;-50
2023/07/07 07:22:14;;;;;;;5.75;2.40;;;;;;;20.83;100.00;101805.00;5054860;28;20040;-50
2023/07/07 07:24:41;;;;;;;8.55;2.63;;;;;;;21.38;100.00;101890.91;5054977;28;20457;-50
2023/07/07 07:27:06;;;;;;;5.15;2.33;;;;;;;21.18;100.00;101841.25;5054316;28;20543;-51
2023/07/07 07:29:31;;;;;;;4.35;2.45;;;;;;;21.32;100.00;101838.56;5059273;28;20041;-52
2023/07/07 07:31:57;;;;;;;5.22;2.55;;;;;;;21.71;100.00;101891.53;5074781;28;20500;-53
2023/07/07 07:34:25;;;;;;;2.35;1.90;;;;;;;21.87;100.00;101908.34;5073439;28;20048;-48
2023/07/07 07:36:51;;;;;;;4.15;2.30;;;;;;;21.93;100.00;101904.47;5074154;28;20083;-50
2023/07/07 07:39:17;;;;;;;5.00;2.38;;;;;;;21.75;100.00;101842.97;5074481;28;20064;-52
2023/07/07 07:41:46;;;;;;;4.43;2.33;;;;;;;22.24;100.00;101886.31;5072717;28;20025;-50
2023/07/07 07:44:12;;;;;;;4.80;2.13;;;;;;;22.34;100.00;101857.97;5074209;28;20028;-49
2023/07/07 07:46:38;;;;;;;3.45;2.53;;;;;;;22.96;100.00;101902.13;5072915;28;20423;-52
2023/07/07 07:49:03;;;;;;;3.38;2.10;;;;;;;23.50;100.00;101912.78;5074180;28;20119;-49
2023/07/07 07:51:28;;;;;;;3.80;2.72;;;;;;;23.98;100.00;101920.09;5074289;28;20072;-50
2023/07/07 07:53:53;;;;;;;5.82;2.55;;;;;;;24.13;100.00;101858.97;5056418;28;20032;-54
2023/07/07 07:56:19;;;;;;;3.22;2.20;;;;;;;24.62;100.00;101875.03;5073959;28;20426;-49
2023/07/07 07:58:44;;;;;;;3.67;2.20;;;;;;;25.37;100.00;101927.66;5074420;28;20544;-52
2023/07/07 08:01:10;;;;;;;3.85;2.47;;;;;;;25.64;100.00;101878.84;5074518;28;20033;-53
2023/07/07 08:03:35;;;;;;;3.15;2.20;;;;;;;26.37;100.00;101941.28;5072574;28;20058;-48
2023/07/07 08:06:00;;;;;;;4.47;2.10;;;;;;;26.81;100.00;101935.81;5036121;28;20033;-50
2023/07/07 08:08:26;;;;;;;5.88;2.30;;;;;;;26.98;100.00;101934.41;5053523;28;20049;-49
2023/07/07 08:10:52;;;;;;;3.58;2.00;;;;;;;26.98;100.00;101938.94;5053641;28;20075;-51
2023/07/07 08:13:17;;;;;;;3.33;2.10;;;;;;;26.89;100.00;101900.03;5053812;28;20053;-50
2023/07/07 08:15:43;;;;;;;3.00;2.50;;;;;;;27.01;100.00;101904.41;5053663;28;20033;-52
2023/07/07 08:18:08;;;;;;;3.90;2.30;;;;;;;27.46;100.00;101942.06;5052715;28;20095;-51
2023/07/07 08:20:33;;;;;;;3.05;2.10;;;;;;;27.42;100.00;101900.91;5035449;28;20055;-48
2023/07/07 08:22:59;;;;;;;4.75;2.25;;;;;;;28.02;100.00;101950.66;5035767;28;20033;-47
2023/07/07 08:25:24;;;;;;;3.67;2.10;;;;;;;28.19;100.00;101921.13;5053959;28;20448;-51
2023/07/07 08:27:51;;;;;;;4.13;2.20;;;;;;;28.31;100.00;101957.91;5035627;28;20033;-53
2023/07/07 08:30:16;;;;;;;4.15;2.20;;;;;;;28.52;100.00;101951.59;5053694;28;20057;-46
2023/07/07 08:32:41;;;;;;;5.10;1.90;;;;;;;28.24;100.00;101929.69;5053543;28;20507;-50
2023/07/07 08:35:08;;;;;;;3.33;2.05;;;;;;;28.39;100.00;101901.22;5052418;28;20037;-50
2023/07/07 08:37:34;;;;;;;4.72;2.17;;;;;;;28.84;100.00;101950.38;5035481;28;20033;-52
2023/07/07 08:39:59;;;;;;;4.18;2.03;;;;;;;28.85;100.00;101935.84;5053254;28;20531;-50
2023/07/07 08:42:33;;;;;;;9.13;2.55;;;;;;;29.14;100.00;101952.09;5052549;28;20052;-50
2023/07/07 08:45:00;;;;;;;6.70;2.83;;;;;;;29.40;100.00;101958.69;5035407;28;20037;-51
2023/07/07 08:47:53;;;;;;;5.03;2.28;;;;;;;29.44;100.00;101972.84;5053294;28;20029;-54
2023/07/07 08:50:50;;;;;;;4.22;2.47;;;;;;;29.40;100.00;101965.97;5053173;28;20032;-52
2023/07/07 08:53:22;;;;;;;3.83;2.17;;;;;;;29.27;100.00;101958.16;5035562;28;20036;-56
2023/07/07 08:55:55;;;;;;;8.15;2.50;;;;;;;29.25;100.00;101933.00;5053067;28;20078;-54
2023/07/07 08:58:30;;;;;;;4.53;2.20;;;;;;;29.26;97.45;101917.59;5052505;28;20032;-54
2023/07/07 09:01:10;;;;;;;6.88;2.42;;;;;;;29.64;89.94;101960.94;5052137;28;20380;-57
2023/07/07 09:03:48;;;;;;;6.40;2.72;;;;;;;29.51;98.39;101927.81;5051936;28;20467;-54
2023/07/07 09:06:26;;;;;;;6.00;2.78;;;;;;;29.89;98.59;101952.19;5051698;28;20124;-54
2023/07/07 09:09:16;;;;;;;2.95;2.30;;;;;;;30.49;96.60;101956.25;5052772;28;20419;-52
2023/07/07 09:12:00;;;;;;;3.00;2.10;;;;;;;30.64;90.70;101943.88;5052473;28;20036;-57
2023/07/07 09:14:25;;;;;;;4.65;2.80;;;;;;;30.33;91.97;101881.81;5052493;28;20053;-53
2023/07/07 09:16:53;;;;;;;4.68;2.22;;;;;;;30.25;85.79;101906.16;5058099;28;20454;-53
2023/07/07 09:19:38;;;;;;;5.55;2.42;;;;;;;30.39;90.13;101922.84;5071310;28;20059;-51
2023/07/07 09:22:13;;;;;;;4.43;2.55;;;;;;;30.88;86.31;101970.44;5054907;28;20131;-50
2023/07/07 09:24:53;;;;;;;3.47;2.20;;;;;;;30.70;90.46;101906.19;5054867;28;20070;-49
2023/07/07 09:27:30;;;;;;;6.47;2.17;;;;;;;30.65;87.09;101922.94;5071377;28;20028;-56
2023/07/07 09:30:27;;;;;;;4.07;2.22;;;;;;;30.98;80.27;101959.53;5054770;28;20024;-51
2023/07/07 09:32:53;;;;;;;4.07;2.40;;;;;;;30.86;83.25;101917.22;5063795;28;20064;-47
2023/07/07 09:35:20;;;;;;;4.75;2.55;;;;;;;31.14;81.02;101970.56;5037617;28;20078;-54
2023/07/07 09:38:02;;;;;;;4.15;2.42;;;;;;;31.30;81.41;101956.25;5054609;28;20472;-50
2023/07/07 09:40:40;;;;;;;4.72;2.25;;;;;;;31.19;74.47;101963.66;5071530;28;20528;-51
2023/07/07 09:43:35;;;;;;;5.40;2.30;;;;;;;31.43;76.02;101954.00;5071041;28;20040;-54
2023/07/07 09:46:09;;;;;;;4.15;2.58;;;;;;;31.66;85.83;101958.78;5070828;28;20036;-54
2023/07/07 09:48:45;;;;;;;3.17;2.10;;;;;;;31.43;59.13;101885.97;5072172;28;20522;-51
2023/07/07 09:51:18;;;;;;;4.85;2.65;;;;;;;32.15;63.03;101962.69;5033700;28;20108;-52
2023/07/07 09:53:45;;;;;;;3.97;2.20;;;;;;;31.78;66.20;101902.22;5051619;28;20029;-53
2023/07/07 09:56:13;;;;;;;4.40;2.30;;;;;;;32.14;67.29;101950.06;5051774;28;20440;-50
2023/07/07 09:58:50;;;;;;;8.38;2.58;;;;;;;32.27;64.46;101927.84;5034398;28;20029;-52
2023/07/07 10:01:16;;;;;;;11.95;3.15;;;;;;;32.31;65.75;101956.47;5050440;28;20419;-54
2023/07/07 10:03:44;;;;;;;5.43;2.70;;;;;;;31.94;61.82;101923.22;5034484;28;20033;-53
2023/07/07 10:06:27;;;;;;;4.88;3.55;;;;;;;32.04;64.85;101953.94;5051568;28;20464;-53
2023/07/07 10:08:53;;;;;;;2.65;2.10;;;;;;;31.71;77.70;101907.44;5062544;28;20506;-53
2023/07/07 10:11:21;;;;;;;6.13;2.30;;;;;;;31.72;72.03;101908.31;5049253;28;20045;-54
2023/07/07 10:13:50;;;;;;;3.42;2.20;;;;;;;32.27;77.92;101952.34;5051980;28;20037;-53
2023/07/07 10:16:22;;;;;;;3.03;2.23;;;;;;;32.52;61.03;101951.41;5033980;28;20217;-52
2023/07/07 10:18:47;;;;;;;5.85;2.42;;;;;;;32.30;71.43;101892.09;5051637;28;20485;-51
2023/07/07 10:21:15;;;;;;;4.93;2.13;;;;;;;32.75;63.66;101949.81;5050779;28;20087;-48
2023/07/07 10:23:40;;;;;;;3.95;2.22;;;;;;;32.71;59.03;101951.19;5050052;28;20392;-54
2023/07/07 10:26:06;;;;;;;2.85;2.25;;;;;;;32.51;72.11;101899.81;5051445;28;20028;-49
2023/07/07 10:28:32;;;;;;;8.32;2.55;;;;;;;32.75;62.57;101925.28;5063995;28;20119;-52
2023/07/07 10:30:57;;;;;;;6.20;2.20;;;;;;;33.06;66.84;101960.09;5070805;28;20032;-53
2023/07/07 10:33:22;;;;;;;3.80;2.15;;;;;;;32.59;60.10;101894.41;5071918;28;20037;-47
2023/07/07 10:35:48;;;;;;;3.03;2.10;;;;;;;32.56;65.96;101903.78;5071922;28;20391;-49
2023/07/07 10:38:14;;;;;;;3.33;2.00;;;;;;;32.71;63.90;101915.75;5054078;28;20029;-52
2023/07/07 10:40:41;;;;;;;6.55;2.28;;;;;;;32.93;56.83;101895.13;5053618;28;20483;-50
2023/07/07 10:43:11;;;;;;;3.13;2.20;;;;;;;32.83;59.69;101908.09;5075029;28;20074;-52
2023/07/07 10:45:37;;;;;;;3.35;2.38;;;;;;;32.83;59.35;101899.91;5067154;28;20112;-54
2023/07/07 10:48:02;;;;;;;2.80;2.50;;;;;;;33.19;61.52;101952.28;5053850;28;20159;-52
2023/07/07 10:50:32;;;;;;;6.68;2.40;;;;;;;33.32;56.47;101944.44;5035597;28;20041;-56
2023/07/07 10:53:14;;;;;;;3.53;2.43;;;;;;;33.07;55.75;101890.91;5035931;28;20472;-52
2023/07/07 10:56:10;;;;;;;3.90;2.50;;;;;;;33.40;62.54;101896.16;5053700;28;20314;-48
2023/07/07 10:58:49;;;;;;;3.58;2.10;;;;;;;33.50;59.18;101947.88;5053846;28;20061;-48
2023/07/07 11:01:47;;;;;;;3.15;2.67;;;;;;;33.33;58.48;101937.97;5051701;28;20560;-51
2023/07/07 11:04:24;;;;;;;2.97;2.20;;;;;;;33.47;66.20;101950.06;5045253;28;20503;-49
2023/07/07 11:07:05;;;;;;;4.88;2.83;;;;;;;33.67;58.27;101932.34;5035914;28;20127;-54
2023/07/07 11:09:36;;;;;;;;;;;;;;;33.98;64.93;101940.63;5052343;28;20095;-52
2023/07/07 11:12:09;;;;;;;2.67;2.47;;;;;;;34.30;66.02;101937.78;5035591;28;20345;-51
2023/07/07 11:15:01;;;;;;;4.00;2.92;;;;;;;34.20;63.63;101894.28;5052315;28;20033;-49
2023/07/07 11:17:32;;;;;;;3.90;2.30;;;;;;;34.78;58.14;101939.44;5036913;28;20553;-52
2023/07/07 11:20:16;;;;;;;4.40;2.35;;;;;;;34.35;65.27;101941.72;5069468;28;20036;-51
2023/07/07 11:22:51;;;;;;;3.28;2.28;;;;;;;34.32;60.82;101933.00;5055457;28;20063;-56